createdAt,value
2023-03-27T00:00:14.342Z,29.53
2023-03-27T00:02:44.681Z,29.58
2023-03-27T00:05:14.960Z,29.64
2023-03-27T00:07:46.107Z,29.63
2023-03-27T00:10:16.852Z,29.57
2023-03-27T00:12:47.257Z,29.52
2023-03-27T00:15:18.807Z,29.47
2023-03-27T00:17:51.152Z,29.43
2023-03-27T00:20:26.299Z,29.51
2023-03-27T00:22:57.832Z,29.43
2023-03-27T00:25:30.533Z,29.39
2023-03-27T00:28:00.894Z,29.40
2023-03-27T00:30:32.579Z,29.37
2023-03-27T00:33:03.265Z,29.36
2023-03-27T00:35:34.285Z,29.35
2023-03-27T00:38:04.535Z,29.32
2023-03-27T00:40:34.666Z,29.37
2023-03-27T00:43:20.238Z,29.53
2023-03-27T00:45:53.369Z,29.60
2023-03-27T00:48:24.431Z,29.67
2023-03-27T00:50:55.468Z,29.63
2023-03-27T00:53:30.549Z,29.65
2023-03-27T00:56:02.607Z,29.70
2023-03-27T00:58:42.217Z,29.73
2023-03-27T01:01:15.321Z,29.76
2023-03-27T01:03:48.226Z,29.80
2023-03-27T01:06:20.643Z,29.83
2023-03-27T01:08:50.823Z,29.87
2023-03-27T01:11:42.333Z,29.90
2023-03-27T01:14:51.039Z,29.94
2023-03-27T01:17:33.874Z,29.96
2023-03-27T01:20:19.472Z,30.00
2023-03-27T01:23:05.251Z,30.01
2023-03-27T01:25:45.990Z,30.04
2023-03-27T01:28:25.493Z,30.06
2023-03-27T01:31:08.127Z,30.08
2023-03-27T01:33:42.038Z,30.12
2023-03-27T01:36:24.642Z,30.13
2023-03-27T01:39:13.907Z,30.15
2023-03-27T01:41:44.036Z,30.19
2023-03-27T01:44:18.936Z,30.20
2023-03-27T01:46:55.477Z,30.23
2023-03-27T01:49:43.550Z,30.24
2023-03-27T01:52:16.061Z,30.27
2023-03-27T01:54:51.220Z,30.28
2023-03-27T01:57:24.707Z,30.28
2023-03-27T02:00:18.143Z,30.33
2023-03-27T02:03:09.651Z,29.85
2023-03-27T02:05:40.334Z,30.37
2023-03-27T02:08:17.406Z,30.40
2023-03-27T02:10:51.642Z,30.43
2023-03-27T02:13:26.363Z,30.45
2023-03-27T02:15:58.083Z,30.47
2023-03-27T02:18:34.988Z,30.50
2023-03-27T02:21:05.687Z,30.53
2023-03-27T02:23:39.087Z,30.55
2023-03-27T02:26:11.773Z,30.58
2023-03-27T02:29:03.064Z,30.60
2023-03-27T02:31:59.916Z,30.62
2023-03-27T02:34:50.699Z,30.65
2023-03-27T02:37:38.618Z,30.67
2023-03-27T02:40:21.593Z,30.71
2023-03-27T02:43:01.301Z,30.73
2023-03-27T02:45:45.807Z,30.76
2023-03-27T02:48:22.443Z,30.79
2023-03-27T02:50:56.462Z,30.81
2023-03-27T02:53:29.828Z,30.85
2023-03-27T02:56:01.971Z,30.87
2023-03-27T02:58:38.056Z,30.90
2023-03-27T03:01:15.325Z,30.92
2023-03-27T03:04:21.670Z,30.95
2023-03-27T03:07:05.718Z,30.96
2023-03-27T03:09:40.628Z,31.00
2023-03-27T03:12:12.401Z,31.02
2023-03-27T03:14:48.139Z,31.04
2023-03-27T03:17:18.761Z,31.07
2023-03-27T03:19:50.227Z,31.09
2023-03-27T03:22:20.459Z,31.12
2023-03-27T03:24:50.578Z,31.14
2023-03-27T03:27:22.503Z,31.16
2023-03-27T03:29:59.691Z,31.21
2023-03-27T03:32:31.696Z,31.24
2023-03-27T03:35:03.084Z,31.26
2023-03-27T03:37:40.281Z,31.29
2023-03-27T03:40:13.496Z,31.31
2023-03-27T03:42:52.805Z,31.34
2023-03-27T03:45:27.332Z,31.34
2023-03-27T03:47:58.065Z,31.39
2023-03-27T03:50:28.392Z,31.41
2023-03-27T03:52:59.338Z,31.44
2023-03-27T03:55:29.541Z,31.45
2023-03-27T03:58:00.019Z,31.47
2023-03-27T04:00:30.833Z,31.50
2023-03-27T04:03:01.309Z,31.52
2023-03-27T04:05:32.051Z,31.53
2023-03-27T04:08:02.326Z,31.56
2023-03-27T04:10:50.912Z,31.57
2023-03-27T04:13:40.087Z,31.58
2023-03-27T04:16:24.029Z,31.60
2023-03-27T04:18:56.571Z,31.60
2023-03-27T04:21:29.707Z,31.62
2023-03-27T04:24:03.903Z,31.64
2023-03-27T04:26:46.651Z,31.65
2023-03-27T04:29:19.561Z,31.66
2023-03-27T04:32:20.554Z,31.69
2023-03-27T04:35:24.856Z,31.70
2023-03-27T04:38:15.856Z,31.73
2023-03-27T04:40:50.730Z,31.76
2023-03-27T04:43:21.467Z,31.77
2023-03-27T04:45:52.204Z,31.79
2023-03-27T04:48:23.442Z,31.83
2023-03-27T04:50:57.819Z,31.84
2023-03-27T04:53:39.325Z,31.89
2023-03-27T04:56:12.072Z,31.90
2023-03-27T04:58:47.141Z,31.93
2023-03-27T05:01:20.504Z,31.95
2023-03-27T05:04:09.869Z,31.97
2023-03-27T05:07:03.981Z,32.00
2023-03-27T05:09:34.150Z,32.02
2023-03-27T05:12:05.132Z,32.04
2023-03-27T05:14:41.272Z,32.06
2023-03-27T05:17:27.525Z,32.09
2023-03-27T05:19:58.338Z,32.11
2023-03-27T05:22:28.820Z,32.13
2023-03-27T05:25:08.368Z,32.16
2023-03-27T05:27:41.554Z,32.17
2023-03-27T05:30:12.281Z,32.19
2023-03-27T05:32:45.243Z,32.21
2023-03-27T05:35:22.439Z,32.23
2023-03-27T05:37:54.979Z,32.25
2023-03-27T05:40:33.244Z,32.27
2023-03-27T05:43:04.539Z,32.28
2023-03-27T05:45:35.858Z,32.31
2023-03-27T05:48:06.538Z,32.32
2023-03-27T05:50:43.290Z,32.34
2023-03-27T05:53:27.997Z,32.36
2023-03-27T05:56:31.189Z,32.40
2023-03-27T05:59:05.045Z,32.42
2023-03-27T06:01:38.037Z,32.43
2023-03-27T06:04:10.492Z,32.47
2023-03-27T06:07:09.973Z,32.03
2023-03-27T06:09:41.226Z,32.55
2023-03-27T06:12:29.716Z,32.58
2023-03-27T06:15:17.093Z,32.61
2023-03-27T06:18:16.272Z,32.65
2023-03-27T06:20:46.686Z,32.67
2023-03-27T06:23:17.395Z,32.71
2023-03-27T06:25:49.056Z,32.74
2023-03-27T06:28:19.933Z,32.77
2023-03-27T06:30:52.337Z,32.80
2023-03-27T06:33:31.194Z,32.83
2023-03-27T06:36:04.678Z,32.88
2023-03-27T06:38:39.534Z,32.90
2023-03-27T06:41:09.782Z,32.94
2023-03-27T06:44:08.950Z,32.97
2023-03-27T06:47:11.690Z,33.02
2023-03-27T06:50:00.946Z,33.05
2023-03-27T06:52:32.696Z,33.09
2023-03-27T06:55:15.230Z,33.12
2023-03-27T06:57:54.678Z,33.17
2023-03-27T07:00:27.794Z,33.19
2023-03-27T07:03:19.109Z,33.24
2023-03-27T07:06:04.743Z,33.28
2023-03-27T07:08:54.152Z,33.33
2023-03-27T07:11:24.330Z,33.37
2023-03-27T07:13:59.410Z,33.43
2023-03-27T07:16:31.710Z,33.47
2023-03-27T07:19:03.584Z,33.52
2023-03-27T07:21:37.370Z,33.55
2023-03-27T07:24:08.131Z,33.61
2023-03-27T07:26:40.402Z,33.66
2023-03-27T07:29:18.563Z,33.69
2023-03-27T07:31:57.862Z,33.74
2023-03-27T07:34:35.469Z,33.80
2023-03-27T07:37:15.915Z,33.86
2023-03-27T07:40:05.681Z,33.92
2023-03-27T07:42:36.693Z,33.96
2023-03-27T07:45:10.978Z,34.00
2023-03-27T07:47:45.399Z,34.05
2023-03-27T07:50:17.741Z,34.10
2023-03-27T07:52:48.497Z,34.16
2023-03-27T07:55:21.016Z,34.20
2023-03-27T07:58:03.682Z,34.24
2023-03-27T08:00:40.432Z,34.31
2023-03-27T08:03:17.232Z,34.35
2023-03-27T08:05:55.507Z,34.41
2023-03-27T08:08:27.656Z,34.44
2023-03-27T08:11:04.059Z,34.49
2023-03-27T08:13:42.501Z,34.52
2023-03-27T08:16:15.947Z,34.57
2023-03-27T08:18:51.152Z,34.62
2023-03-27T08:21:21.732Z,34.66
2023-03-27T08:23:53.305Z,34.72
2023-03-27T08:26:49.582Z,34.80
2023-03-27T08:29:19.767Z,34.83
2023-03-27T08:31:50.937Z,34.88
2023-03-27T08:34:21.168Z,34.94
2023-03-27T08:36:55.562Z,34.98
2023-03-27T08:39:33.820Z,35.02
2023-03-27T08:42:08.717Z,35.07
2023-03-27T08:44:41.996Z,35.14
2023-03-27T08:47:25.910Z,35.18
2023-03-27T08:50:27.714Z,35.22
2023-03-27T08:53:13.366Z,35.28
2023-03-27T08:55:46.035Z,35.33
2023-03-27T08:58:43.234Z,35.39
2023-03-27T09:01:27.784Z,35.43
2023-03-27T09:04:15.795Z,35.48
2023-03-27T09:06:54.194Z,35.53
2023-03-27T09:09:36.520Z,35.58
2023-03-27T09:12:18.024Z,35.64
2023-03-27T09:15:02.733Z,35.67
2023-03-27T09:17:40.129Z,35.73
2023-03-27T09:20:20.471Z,35.78
2023-03-27T09:22:59.548Z,35.82
2023-03-27T09:25:52.059Z,35.86
2023-03-27T09:28:52.345Z,35.91
2023-03-27T09:31:30.528Z,35.94
2023-03-27T09:34:07.015Z,35.99
2023-03-27T09:36:40.329Z,36.02
2023-03-27T09:39:16.885Z,36.05
2023-03-27T09:42:12.517Z,36.06
2023-03-27T09:44:43.937Z,36.10
2023-03-27T09:47:14.163Z,36.10
2023-03-27T09:50:05.578Z,36.13
2023-03-27T09:52:56.693Z,36.14
2023-03-27T09:55:52.062Z,36.14
2023-03-27T09:58:33.713Z,36.17
2023-03-27T10:01:10.165Z,36.13
2023-03-27T10:03:42.257Z,36.18
2023-03-27T10:06:16.004Z,36.18
2023-03-27T10:09:14.022Z,36.20
2023-03-27T10:11:45.127Z,36.20
2023-03-27T10:14:27.652Z,36.20
2023-03-27T10:16:58.982Z,36.18
2023-03-27T10:19:31.369Z,36.16
2023-03-27T10:22:08.025Z,36.16
2023-03-27T10:24:47.580Z,36.17
2023-03-27T10:27:29.923Z,36.16
2023-03-27T10:30:36.181Z,35.68
2023-03-27T10:33:33.696Z,35.25
2023-03-27T10:36:21.822Z,35.03
2023-03-27T10:38:57.986Z,34.90
2023-03-27T10:41:41.325Z,34.77
2023-03-27T10:44:19.199Z,34.63
2023-03-27T10:46:56.530Z,34.57
2023-03-27T10:49:38.425Z,34.46
2023-03-27T10:52:17.244Z,34.37
2023-03-27T10:55:22.762Z,34.36
2023-03-27T10:57:57.571Z,34.61
2023-03-27T11:00:34.225Z,34.73
2023-03-27T11:03:11.107Z,34.54
2023-03-27T11:05:44.745Z,34.38
2023-03-27T11:08:30.369Z,34.25
2023-03-27T11:11:09.291Z,34.17
2023-03-27T11:13:48.044Z,34.07
2023-03-27T11:16:49.498Z,34.29
2023-03-27T11:19:46.462Z,34.56
2023-03-27T11:22:43.658Z,34.68
2023-03-27T11:25:24.418Z,34.74
2023-03-27T11:28:02.863Z,34.79
2023-03-27T11:30:34.624Z,34.81
2023-03-27T11:33:18.582Z,34.81
2023-03-27T11:35:55.371Z,34.82
2023-03-27T11:38:48.090Z,34.81
2023-03-27T11:41:18.348Z,34.81
2023-03-27T11:43:49.118Z,34.80
2023-03-27T11:47:03.553Z,34.80
2023-03-27T11:49:43.357Z,34.79
2023-03-27T11:52:14.084Z,34.78
2023-03-27T11:54:50.059Z,34.76
2023-03-27T11:57:29.309Z,34.68
2023-03-27T12:00:27.432Z,34.47
2023-03-27T12:03:21.637Z,34.37
2023-03-27T12:05:53.967Z,34.28
2023-03-27T12:08:34.332Z,34.24
2023-03-27T12:11:06.371Z,34.19
2023-03-27T12:14:01.518Z,34.17
2023-03-27T12:16:45.776Z,33.94
2023-03-27T12:22:22.774Z,33.79
2023-03-27T12:24:59.690Z,33.68
2023-03-27T12:27:56.535Z,33.69
2023-03-27T12:30:46.852Z,33.71
2023-03-27T12:33:40.957Z,33.69
2023-03-27T12:36:15.079Z,33.67
2023-03-27T12:38:45.487Z,33.64
2023-03-27T12:41:44.905Z,33.63
2023-03-27T12:44:33.059Z,33.35
2023-03-27T12:47:18.006Z,33.08
2023-03-27T12:49:58.087Z,32.75
2023-03-27T12:52:34.360Z,32.40
2023-03-27T12:55:20.360Z,32.07
2023-03-27T12:58:15.424Z,31.88
2023-03-27T13:01:10.581Z,31.72
2023-03-27T13:03:49.147Z,31.61
2023-03-27T13:06:38.568Z,31.56
2023-03-27T13:09:10.404Z,31.58
2023-03-27T13:12:04.358Z,31.54
2023-03-27T13:14:36.324Z,31.49
2023-03-27T13:17:12.653Z,31.52
2023-03-27T13:19:52.977Z,31.52
2023-03-27T13:22:44.717Z,31.46
2023-03-27T13:25:31.375Z,31.43
2023-03-27T13:28:20.220Z,31.36
2023-03-27T13:30:59.397Z,31.28
2023-03-27T13:34:24.082Z,31.24
2023-03-27T13:37:06.231Z,31.20
2023-03-27T13:40:00.631Z,31.13
2023-03-27T13:42:49.536Z,31.11
2023-03-27T13:48:55.441Z,31.03
2023-03-27T13:51:37.633Z,30.99
2023-03-27T13:54:32.626Z,30.95
2023-03-27T13:57:33.062Z,30.91
2023-03-27T14:00:23.708Z,30.94
2023-03-27T14:03:18.604Z,30.93
2023-03-27T14:06:12.222Z,30.92
2023-03-27T14:09:08.390Z,30.94
2023-03-27T14:12:26.162Z,30.95
2023-03-27T14:15:09.887Z,30.92
2023-03-27T14:17:58.328Z,30.90
2023-03-27T14:20:58.418Z,30.89
2023-03-27T14:23:31.618Z,30.84
2023-03-27T14:26:21.049Z,30.80
2023-03-27T14:28:56.553Z,30.84
2023-03-27T14:31:39.446Z,30.84
2023-03-27T14:34:43.534Z,30.80
2023-03-27T14:37:40.581Z,30.73
2023-03-27T14:40:46.091Z,30.72
2023-03-27T14:43:23.551Z,30.69
2023-03-27T14:46:02.070Z,30.68
2023-03-27T14:48:41.878Z,30.68
2023-03-27T14:51:19.130Z,30.63
2023-03-27T14:53:55.508Z,30.63
2023-03-27T14:56:45.111Z,30.61
2023-03-27T14:59:47.096Z,30.58
2023-03-27T15:02:25.934Z,30.53
2023-03-27T15:05:06.994Z,30.50
2023-03-27T15:07:38.954Z,30.45
2023-03-27T15:10:28.737Z,30.39
2023-03-27T15:13:17.680Z,30.34
2023-03-27T15:15:55.600Z,30.26
2023-03-27T15:18:29.737Z,30.26
2023-03-27T15:21:05.908Z,30.23
2023-03-27T15:23:38.280Z,30.19
2023-03-27T15:26:14.270Z,30.19
2023-03-27T15:28:50.087Z,30.21
2023-03-27T15:31:23.198Z,30.16
2023-03-27T15:33:54.384Z,30.13
2023-03-27T15:36:36.163Z,30.13
2023-03-27T15:39:09.983Z,30.09
2023-03-27T15:41:43.690Z,30.06
2023-03-27T15:44:19.375Z,30.07
2023-03-27T15:46:52.241Z,30.05
2023-03-27T15:49:42.904Z,29.95
2023-03-27T15:52:33.346Z,29.92
2023-03-27T15:55:04.998Z,29.94
2023-03-27T15:57:36.784Z,29.87
2023-03-27T16:00:11.617Z,29.83
2023-03-27T16:02:45.425Z,29.78
2023-03-27T16:05:21.983Z,29.72
2023-03-27T16:07:56.532Z,29.66
2023-03-27T16:10:34.211Z,29.61
2023-03-27T16:13:07.906Z,29.59
2023-03-27T16:15:43.025Z,29.54
2023-03-27T16:18:17.629Z,29.50
2023-03-27T16:20:48.077Z,29.45
2023-03-27T16:23:19.271Z,29.42
2023-03-27T16:25:51.253Z,29.34
2023-03-27T16:28:23.408Z,29.30
2023-03-27T16:30:54.156Z,29.28
2023-03-27T16:33:24.465Z,29.31
2023-03-27T16:35:58.579Z,29.25
2023-03-27T16:38:29.458Z,29.20
2023-03-27T16:41:03.246Z,29.18
2023-03-27T16:43:36.988Z,29.14
2023-03-27T16:46:08.696Z,29.07
2023-03-27T16:48:38.849Z,29.10
2023-03-27T16:51:08.968Z,29.07
2023-03-27T16:53:39.111Z,29.09
2023-03-27T16:56:09.368Z,29.01
2023-03-27T16:58:40.089Z,29.00
2023-03-27T17:01:10.860Z,29.00
2023-03-27T17:03:41.406Z,28.95
2023-03-27T17:06:12.941Z,28.95
2023-03-27T17:08:43.526Z,28.93
2023-03-27T17:11:14.994Z,28.90
2023-03-27T17:13:45.822Z,28.86
2023-03-27T17:16:16.736Z,28.82
2023-03-27T17:18:47.769Z,28.79
2023-03-27T17:21:17.899Z,28.79
2023-03-27T17:23:50.081Z,28.77
2023-03-27T17:26:35.732Z,28.75
2023-03-27T17:29:07.546Z,28.70
2023-03-27T17:31:37.810Z,28.70
2023-03-27T17:34:09.299Z,28.70
2023-03-27T17:36:45.313Z,28.71
2023-03-27T17:39:22.899Z,28.64
2023-03-27T17:41:53.485Z,28.62
2023-03-27T17:44:23.536Z,28.59
2023-03-27T17:46:54.819Z,28.58
2023-03-27T17:49:24.979Z,28.54
2023-03-27T17:51:55.163Z,28.53
2023-03-27T17:54:25.691Z,28.50
2023-03-27T17:56:55.775Z,28.46
2023-03-27T17:59:27.128Z,28.43
2023-03-27T18:01:57.409Z,28.40
2023-03-27T18:04:27.837Z,28.41
2023-03-27T18:06:57.837Z,28.39
2023-03-27T18:09:28.056Z,28.38
2023-03-27T18:11:58.135Z,28.37
2023-03-27T18:14:29.005Z,28.34
2023-03-27T18:16:59.155Z,28.32
2023-03-27T18:19:29.828Z,28.27
2023-03-27T18:22:00.089Z,28.26
2023-03-27T18:24:30.504Z,28.23
2023-03-27T18:27:00.717Z,28.23
2023-03-27T18:29:32.378Z,28.23
2023-03-27T18:32:03.043Z,28.18
2023-03-27T18:34:33.300Z,28.17
2023-03-27T18:37:03.383Z,28.19
2023-03-27T18:39:36.605Z,28.16
2023-03-27T18:42:06.805Z,28.15
2023-03-27T18:44:39.414Z,28.11
2023-03-27T18:47:11.021Z,28.07
2023-03-27T18:49:42.570Z,28.09
2023-03-27T18:52:14.080Z,28.05
2023-03-27T18:54:44.937Z,28.06
2023-03-27T18:57:20.230Z,28.04
2023-03-27T18:59:51.125Z,28.02
2023-03-27T19:02:21.626Z,28.05
2023-03-27T19:04:52.511Z,27.84
2023-03-27T19:07:22.659Z,27.99
2023-03-27T19:09:52.868Z,27.97
2023-03-27T19:12:23.602Z,27.97
2023-03-27T19:14:53.829Z,27.95
2023-03-27T19:17:56.718Z,27.93
2023-03-27T19:20:52.842Z,27.94
2023-03-27T19:23:55.336Z,27.88
2023-03-27T19:26:35.984Z,27.88
2023-03-27T19:29:07.076Z,27.88
2023-03-27T19:31:37.329Z,27.85
2023-03-27T19:34:07.833Z,27.81
2023-03-27T19:36:38.717Z,27.80
2023-03-27T19:39:09.647Z,27.83
2023-03-27T19:41:39.763Z,27.80
2023-03-27T19:44:09.985Z,27.81
2023-03-27T19:46:40.104Z,27.81
2023-03-27T19:49:10.472Z,27.78
2023-03-27T19:51:50.317Z,27.73
2023-03-27T19:54:20.702Z,27.74
2023-03-27T19:56:50.766Z,27.73
2023-03-27T19:59:29.833Z,27.72
2023-03-27T20:02:00.951Z,27.72
2023-03-27T20:04:31.321Z,27.71
2023-03-27T20:07:03.479Z,27.67
2023-03-27T20:09:33.748Z,27.67
2023-03-27T20:12:04.399Z,27.65
2023-03-27T20:14:34.904Z,27.67
2023-03-27T20:17:07.986Z,27.65
2023-03-27T20:19:47.593Z,27.61
2023-03-27T20:22:22.217Z,27.59
2023-03-27T20:24:52.284Z,27.59
2023-03-27T20:27:22.290Z,27.58
2023-03-27T20:29:52.502Z,27.60
2023-03-27T20:32:22.770Z,27.58
2023-03-27T20:34:52.857Z,27.59
2023-03-27T20:37:23.292Z,27.58
2023-03-27T20:40:08.595Z,27.54
2023-03-27T20:42:48.660Z,27.50
2023-03-27T20:45:20.888Z,27.47
2023-03-27T20:47:51.120Z,27.46
2023-03-27T20:50:25.069Z,27.44
2023-03-27T20:52:59.465Z,27.43
2023-03-27T20:55:34.617Z,27.44
2023-03-27T20:58:09.564Z,27.43
2023-03-27T21:00:39.850Z,27.41
2023-03-27T21:03:10.163Z,27.38
2023-03-27T21:05:42.677Z,27.39
2023-03-27T21:08:12.925Z,27.35
2023-03-27T21:10:43.875Z,27.36
2023-03-27T21:13:14.082Z,27.34
2023-03-27T21:15:44.631Z,27.33
2023-03-27T21:18:14.815Z,27.32
2023-03-27T21:20:45.073Z,27.33
2023-03-27T21:23:15.709Z,27.32
2023-03-27T21:25:47.003Z,27.31
2023-03-27T21:28:18.135Z,27.34
2023-03-27T21:30:48.995Z,27.29
2023-03-27T21:33:20.137Z,27.27
2023-03-27T21:35:50.928Z,27.26
2023-03-27T21:38:21.603Z,27.26
2023-03-27T21:40:51.755Z,27.24
2023-03-27T21:43:22.747Z,27.28
2023-03-27T21:45:53.346Z,27.27
2023-03-27T21:48:23.922Z,27.29
2023-03-27T21:50:53.970Z,27.30
2023-03-27T21:53:24.082Z,27.31
2023-03-27T21:55:54.721Z,27.30
2023-03-27T21:58:25.696Z,27.29
2023-03-27T22:00:59.235Z,27.27
2023-03-27T22:03:29.963Z,27.26
2023-03-27T22:06:12.529Z,27.27
2023-03-27T22:08:44.533Z,27.27
2023-03-27T22:11:14.589Z,27.26
2023-03-27T22:13:44.772Z,27.23
2023-03-27T22:16:16.329Z,27.24
2023-03-27T22:18:46.925Z,27.16
2023-03-27T22:21:18.635Z,27.16
2023-03-27T22:23:52.101Z,27.16
2023-03-27T22:26:23.778Z,27.16
2023-03-27T22:28:54.079Z,27.12
2023-03-27T22:31:25.250Z,27.14
2023-03-27T22:33:55.449Z,27.13
2023-03-27T22:36:25.913Z,27.10
2023-03-27T22:38:56.434Z,27.12
2023-03-27T22:41:26.745Z,27.11
2023-03-27T22:43:57.408Z,27.11
2023-03-27T22:46:27.869Z,27.11
2023-03-27T22:48:59.286Z,27.10
2023-03-27T22:51:30.802Z,27.11
2023-03-27T22:54:00.877Z,27.13
2023-03-27T22:56:30.944Z,27.12
2023-03-27T22:59:01.127Z,27.13
2023-03-27T23:01:31.847Z,27.13
2023-03-27T23:04:02.306Z,27.24
2023-03-27T23:06:32.804Z,27.36
2023-03-27T23:09:02.897Z,27.49
2023-03-27T23:11:33.002Z,27.61
2023-03-27T23:14:03.073Z,27.73
2023-03-27T23:16:33.212Z,27.84
2023-03-27T23:19:03.584Z,27.95
2023-03-27T23:21:33.829Z,28.02
2023-03-27T23:24:03.943Z,28.10
2023-03-27T23:26:33.985Z,28.17
2023-03-27T23:29:04.361Z,28.24
2023-03-27T23:31:35.121Z,28.33
2023-03-27T23:34:05.346Z,28.39
2023-03-27T23:36:35.966Z,28.47
2023-03-27T23:39:06.359Z,28.54
2023-03-27T23:41:36.484Z,28.62
2023-03-27T23:44:06.919Z,28.67
2023-03-27T23:46:37.028Z,28.75
2023-03-27T23:49:07.382Z,28.88
2023-03-27T23:51:37.524Z,28.99
2023-03-27T23:54:08.172Z,28.96
2023-03-27T23:56:38.774Z,28.93
2023-03-27T23:59:08.878Z,28.94
